Latest Coastal Weather Observations for Holmes Reef

IDQ60701

Issued at 12:21 pm EST Sunday 2 August 2015 (issued every 10 minutes, with the page automatically refreshed every 10 minutes)

About coastal observations | Map of coastal stations | Coastal observations for QLD | Marine services | Other Formats
Station Details ID: 200732 Name: HOLMES REEF Lat: -16.47 Lon: 147.87 Height: 1.9 m
Data from the previous 72 hours. | See also: Recent months at Holmes Reef
Date/Time
EST
Temp

°C
Wind Pressure Rain
since 9am
mm
Weather Cloud Vis
km
Sea
Height
m
Swell
Dir
 
Speed
knots
Gust
knots
hPa Trend Height
m
Period
s
Dir
02/12:15pm 24.2 E 18 22 1018.2 - - - - - - - - -
02/12:00pm 24.5 ESE 16 19 1018.7 - - - - - - - - -
02/11:30am 24.1 ESE 16 19 1018.9 - - - - - - - - -
02/11:15am 24.5 ESE 15 - 1018.7 - - - - - - - - -
02/11:00am 24.5 ESE 16 19 1019.2 - - - - - - - - -
02/10:30am 24.5 ESE 16 19 1019.5 - - - - - - - - -
02/10:15am 24.5 ESE 16 - 1019.3 - - - - - - - - -
02/10:00am 24.5 ESE 16 18 1019.7 - - - - - - - - -
02/09:30am 24.5 E 17 20 1019.6 - - - - - - - - -
02/09:15am 24.6 E 16 - 1019.2 - - - - - - - - -
02/09:00am 24.5 E 18 20 1019.4 - - - - - - - - -
02/08:30am 24.5 E 14 17 1019.1 - - - - - - - - -
02/08:15am 24.3 E 15 - 1018.7 - - - - - - - - -
02/08:00am 24.0 E 16 21 1018.8 - - - - - - - - -
02/07:30am 24.1 E 14 17 1018.5 - - - - - - - - -
02/07:15am 24.2 E 16 - 1018.1 - - - - - - - - -
02/07:00am 24.1 E 17 19 1018.2 - - - - - - - - -
02/06:30am 24.3 E 19 23 1017.9 - - - - - - - - -
02/06:15am 24.3 E 24 - 1017.4 - - - - - - - - -
02/06:00am 24.3 E 23 27 1017.5 - - - - - - - - -
02/05:30am 24.1 E 22 25 1017.4 - - - - - - - - -
02/05:15am 24.0 ESE 19 - 1017.1 - - - - - - - - -
02/05:00am 23.9 E 19 23 1017.3 - - - - - - - - -
02/04:30am 24.0 ESE 16 19 1017.2 - - - - - - - - -
02/04:15am 24.0 ESE 18 - 1016.9 - - - - - - - - -
02/04:00am 24.1 E 19 22 1017.2 - - - - - - - - -
02/03:30am 24.4 E 21 25 1017.2 - - - - - - - - -
02/03:15am 24.0 E 21 - 1016.9 - - - - - - - - -
02/03:00am 24.1 E 20 24 1017.3 - - - - - - - - -
02/02:30am 24.3 ESE 18 21 1017.5 - - - - - - - - -
02/02:15am 24.1 ESE 18 - 1017.2 - - - - - - - - -
02/02:00am 24.0 E 17 19 1017.7 - - - - - - - - -
02/01:30am 24.2 E 20 24 1017.7 - - - - - - - - -
02/01:15am 24.2 E 22 - 1017.4 - - - - - - - - -
02/01:00am 24.1 E 23 26 1017.8 - - - - - - - - -
02/12:30am 24.1 ESE 19 22 1018.0 - - - - - - - - -
02/12:15am 24.1 ESE 21 - 1017.7 - - - - - - - - -
02/12:00am 24.1 ESE 21 24 1018.0 - - - - - - - - -
 
Date/Time
EST
Temp

°C
Wind Pressure Rain
since 9am
mm
Weather Cloud Vis
km
Sea
Height
m
Swell
Dir
 
Speed
knots
Gust
knots
hPa Trend Height
m
Period
s
Dir
01/11:30pm 24.1 ESE 21 25 1018.2 - - - - - - - - -
01/11:15pm 24.3 ESE 22 - 1017.9 - - - - - - - - -
01/11:00pm 24.1 ESE 23 25 1018.2 - - - - - - - - -
01/10:30pm 24.2 ESE 21 25 1018.1 - - - - - - - - -
01/10:15pm 24.3 ESE 22 - 1017.9 - - - - - - - - -
01/10:00pm 24.3 ESE 23 28 1018.1 - - - - - - - - -
01/09:30pm 24.1 ESE 20 23 1018.1 - - - - - - - - -
01/09:15pm 24.1 ESE 21 - 1017.8 - - - - - - - - -
01/09:00pm 24.1 ESE 22 25 1018.1 - - - - - - - - -
01/08:30pm 24.1 ESE 21 25 1017.9 - - - - - - - - -
01/08:15pm 24.1 ESE 23 - 1017.4 - - - - - - - - -
01/08:00pm 24.1 ESE 21 25 1017.6 - - - - - - - - -
01/07:30pm 24.0 ESE 21 26 1017.1 - - - - - - - - -
01/07:15pm 24.0 ESE 21 - 1016.6 - - - - - - - - -
01/07:00pm 23.9 ESE 22 25 1016.7 - - - - - - - - -
01/06:30pm 24.0 ESE 21 25 1016.5 - - - - - - - - -
01/06:15pm 23.9 ESE 21 - 1016.1 - - - - - - - - -
01/06:00pm 24.0 ESE 23 26 1016.3 - - - - - - - - -
01/05:30pm 24.1 ESE 22 25 1016.2 - - - - - - - - -
01/05:15pm 24.1 ESE 22 - 1015.8 - - - - - - - - -
01/05:00pm 24.2 ESE 21 24 1016.1 - - - - - - - - -
01/04:30pm 24.2 ESE 21 24 1016.1 - - - - - - - - -
01/04:15pm 24.2 ESE 21 - 1015.9 - - - - - - - - -
01/04:00pm 24.1 ESE 22 25 1016.1 - - - - - - - - -
01/03:30pm 24.3 ESE 21 25 1016.0 - - - - - - - - -
01/03:15pm 24.5 ESE 21 - 1015.7 - - - - - - - - -
01/03:00pm 24.3 ESE 21 25 1016.0 - - - - - - - - -
01/02:30pm 24.3 ESE 22 25 1016.1 - - - - - - - - -
01/02:15pm 24.3 ESE 22 - 1015.9 - - - - - - - - -
01/02:00pm 24.2 ESE 22 25 1016.3 - - - - - - - - -
01/01:30pm 24.3 ESE 22 27 1016.4 - - - - - - - - -
01/01:15pm 24.2 ESE 22 - 1016.4 - - - - - - - - -
01/01:00pm 24.2 ESE 22 26 1017.1 - - - - - - - - -
01/12:30pm 24.1 ESE 22 25 1017.6 - - - - - - - - -
01/12:15pm 24.0 ESE 21 - 1017.6 - - - - - - - - -
01/12:00pm 24.1 ESE 22 26 1018.1 - - - - - - - - -
01/11:30am 24.2 ESE 21 24 1018.3 - - - - - - - - -
01/11:15am 24.1 ESE 22 - 1018.1 - - - - - - - - -
01/11:00am 24.1 E 22 25 1018.6 - - - - - - - - -
01/10:30am 24.2 E 21 26 1018.8 - - - - - - - - -
01/10:15am 24.2 ESE 22 - 1018.6 - - - - - - - - -
01/10:00am 24.2 E 23 26 1019.0 - - - - - - - - -
01/09:30am 24.3 ESE 23 25 1018.9 - - - - - - - - -
01/09:15am 24.2 E 22 - 1018.8 - - - - - - - - -
01/09:00am 24.2 E 22 25 1019.2 - - - - - - - - -
01/08:30am 24.4 E 22 25 1019.0 - - - - - - - - -
01/08:15am 24.3 E 22 - 1018.6 - - - - - - - - -
01/08:00am 24.2 E 23 26 1018.8 - - - - - - - - -
01/07:30am 24.1 E 22 26 1018.5 - - - - - - - - -
01/07:15am 24.0 E 20 - 1018.1 - - - - - - - - -
01/07:00am 24.0 E 21 24 1018.3 - - - - - - - - -
01/06:30am 23.9 E 22 25 1018.0 - - - - - - - - -
01/06:15am 24.0 E 21 - 1017.5 - - - - - - - - -
01/06:00am 24.0 E 21 25 1017.6 - - - - - - - - -
01/05:30am 24.0 E 21 26 1017.4 - - - - - - - - -
01/05:15am 24.1 E 23 - 1017.0 - - - - - - - - -
01/05:00am 24.2 E 23 27 1017.2 - - - - - - - - -
01/04:30am 24.1 E 25 29 1016.9 - - - - - - - - -
01/04:15am 24.0 E 25 - 1016.6 - - - - - - - - -
01/04:00am 23.9 E 25 29 1016.9 - - - - - - - - -
01/03:30am 23.8 E 25 29 1017.0 - - - - - - - - -
01/03:15am 23.8 ESE 22 - 1016.8 - - - - - - - - -
01/03:00am 23.9 ESE 23 27 1017.0 - - - - - - - - -
01/02:30am 23.8 ESE 25 29 1017.1 - - - - - - - - -
01/02:15am 23.9 ESE 25 - 1016.9 - - - - - - - - -
01/02:00am 23.8 ESE 23 28 1017.3 - - - - - - - - -
01/01:30am 23.4 ESE 22 27 1017.5 - - - - - - - - -
01/01:15am 23.3 ESE 21 - 1017.4 - - - - - - - - -
01/01:07am 23.1 E 24 34 1017.8 - - - - - - - - -
01/01:00am 22.9 E 25 34 1017.8 - - - - - - - - -
01/12:44am 23.0 E 23 33 1017.7 - - - - - - - - -
01/12:30am 23.6 ESE 23 29 1017.8 - - - - - - - - -
01/12:15am 23.9 E 22 - 1017.6 - - - - - - - - -
01/12:00am 23.9 E 21 25 1017.9 - - - - - - - - -
 
Date/Time
EST
Temp

°C
Wind Pressure Rain
since 9am
mm
Weather Cloud Vis
km
Sea
Height
m
Swell
Dir
 
Speed
knots
Gust
knots
hPa Trend Height
m
Period
s
Dir
31/11:30pm 24.1 E 22 27 1018.1 - - - - - - - - -
31/11:15pm 23.9 E 22 - 1018.0 - - - - - - - - -
31/11:00pm 23.8 E 22 24 1018.3 - - - - - - - - -
31/10:30pm 24.0 E 23 27 1018.4 - - - - - - - - -
31/10:15pm 23.9 ESE 24 - 1018.1 - - - - - - - - -
31/10:00pm 23.9 ESE 23 27 1018.4 - - - - - - - - -
31/09:30pm 23.9 ESE 23 27 1018.2 - - - - - - - - -
31/09:15pm 23.9 ESE 25 - 1017.9 - - - - - - - - -
31/09:00pm 23.9 ESE 24 29 1018.2 - - - - - - - - -
31/08:30pm 23.9 E 23 27 1018.1 - - - - - - - - -
31/08:15pm 23.8 ESE 23 - 1017.6 - - - - - - - - -
31/08:00pm 23.8 ESE 24 28 1017.8 - - - - - - - - -
31/07:30pm 23.8 ESE 24 27 1017.5 - - - - - - - - -
31/07:15pm 23.8 ESE 23 - 1017.0 - - - - - - - - -
31/07:00pm 23.9 ESE 22 25 1017.1 - - - - - - - - -
31/06:30pm 23.9 ESE 24 27 1016.9 - - - - - - - - -
31/06:15pm 23.9 ESE 24 - 1016.5 - - - - - - - - -
31/06:00pm 24.0 ESE 23 27 1016.6 - - - - - - - - -
31/05:30pm 24.0 ESE 22 26 1016.3 - - - - - - - - -
31/05:15pm 23.9 ESE 22 - 1015.8 - - - - - - - - -
31/05:00pm 24.1 ESE 23 27 1015.9 - - - - - - - - -
31/04:30pm 24.0 SE 22 26 1015.7 - - - - - - - - -
31/04:15pm 24.0 ESE 22 - 1015.3 - - - - - - - - -
31/04:00pm 24.0 ESE 24 26 1015.5 - - - - - - - - -
31/03:30pm 24.0 ESE 22 25 1015.6 - - - - - - - - -
31/03:15pm 24.0 SE 22 - 1015.4 - - - - - - - - -
31/03:00pm 24.0 ESE 22 25 1015.8 - - - - - - - - -
31/02:30pm 24.1 ESE 22 25 1016.1 - - - - - - - - -
31/02:15pm 24.1 ESE 22 - 1016.1 - - - - - - - - -
31/02:00pm 24.0 ESE 22 24 1016.4 - - - - - - - - -
31/01:30pm 24.0 ESE 21 24 1016.7 - - - - - - - - -
31/01:15pm 24.1 ESE 21 - 1016.5 - - - - - - - - -
31/01:00pm 23.9 ESE 22 25 1017.1 - - - - - - - - -
31/12:30pm 23.9 ESE 22 24 1017.3 - - - - - - - - -
31/12:15pm 23.9 ESE 23 - 1017.2 - - - - - - - - -
31/12:00pm 24.0 ESE 23 27 1017.6 - - - - - - - - -
31/11:30am 23.9 ESE 23 26 1018.0 - - - - - - - - -
31/11:15am 23.8 ESE 23 - 1017.9 - - - - - - - - -
31/11:00am 23.8 ESE 22 26 1018.3 - - - - - - - - -
31/10:30am 24.0 ESE 24 27 1018.8 - - - - - - - - -
31/10:15am 24.0 SE 23 - 1018.6 - - - - - - - - -
31/10:00am 23.9 ESE 23 27 1019.0 - - - - - - - - -
31/09:30am 23.9 ESE 22 27 1019.1 - - - - - - - - -
31/09:15am 24.0 ESE 21 - 1019.0 - - - - - - - - -
31/09:00am 24.1 ESE 21 26 1019.3 - - - - - - - - -
31/08:30am 24.1 ESE 22 26 1019.0 - - - - - - - - -
31/08:15am 24.0 ESE 22 - 1018.6 - - - - - - - - -
31/08:00am 24.0 ESE 22 26 1018.7 - - - - - - - - -
31/07:30am 23.9 ESE 21 24 1018.6 - - - - - - - - -
31/07:15am 23.8 ESE 20 - 1018.1 - - - - - - - - -
31/07:00am 23.7 ESE 22 26 1018.4 - - - - - - - - -
31/06:30am 23.7 ESE 21 26 1018.3 - - - - - - - - -
31/06:15am 23.7 ESE 22 - 1017.9 - - - - - - - - -
31/06:00am 23.7 ESE 22 25 1018.1 - - - - - - - - -
31/05:30am 23.6 ESE 22 26 1017.7 - - - - - - - - -
31/05:15am 23.7 ESE 23 - 1017.2 - - - - - - - - -
31/05:00am 23.7 ESE 25 29 1017.4 - - - - - - - - -
31/04:30am 23.5 ESE 25 29 1017.5 - - - - - - - - -
31/04:15am 23.6 ESE 24 - 1017.5 - - - - - - - - -
31/04:00am 23.6 ESE 26 30 1017.8 - - - - - - - - -
31/03:30am 23.7 ESE 26 29 1017.7 - - - - - - - - -
31/03:15am 23.6 ESE 26 - 1017.5 - - - - - - - - -
31/03:00am 23.5 ESE 25 29 1017.8 - - - - - - - - -
31/02:30am 22.8 ESE 26 30 1018.0 - - - - - - - - -
31/02:15am 23.6 ESE 20 - 1017.8 - - - - - - - - -
31/02:00am 23.5 ESE 22 27 1018.1 - - - - - - - - -
31/01:30am 23.7 ESE 23 26 1018.5 - - - - - - - - -
31/01:15am 23.6 ESE 23 - 1018.4 - - - - - - - - -
31/01:00am 23.6 ESE 23 28 1018.8 - - - - - - - - -
31/12:30am 23.6 ESE 23 27 1019.1 - - - - - - - - -
31/12:15am 23.5 ESE 23 - 1018.9 - - - - - - - - -
31/12:00am 23.4 ESE 25 30 1019.3 - - - - - - - - -
 
Date/Time
EST
Temp

°C
Wind Pressure Rain
since 9am
mm
Weather Cloud Vis
km
Sea
Height
m
Swell
Dir
 
Speed
knots
Gust
knots
hPa Trend Height
m
Period
s
Dir
30/11:30pm 23.6 ESE 26 31 1019.2 - - - - - - - - -
30/11:15pm 23.5 ESE 25 - 1019.0 - - - - - - - - -
30/11:00pm 23.7 ESE 25 30 1019.4 - - - - - - - - -
30/10:30pm 23.6 ESE 24 27 1019.4 - - - - - - - - -
30/10:15pm 23.7 ESE 24 - 1019.1 - - - - - - - - -
30/10:00pm 23.8 ESE 24 27 1019.4 - - - - - - - - -
30/09:30pm 23.9 ESE 24 27 1019.4 - - - - - - - - -
30/09:15pm 23.8 SE 25 - 1019.0 - - - - - - - - -
30/09:00pm 23.7 ESE 23 28 1019.2 - - - - - - - - -
30/08:30pm 23.6 ESE 23 27 1019.2 - - - - - - - - -
30/08:15pm 23.8 ESE 23 - 1018.8 - - - - - - - - -
30/08:00pm 23.8 ESE 23 27 1019.0 - - - - - - - - -
30/07:30pm 23.8 ESE 22 26 1018.7 - - - - - - - - -
30/07:15pm 23.8 ESE 23 - 1018.2 - - - - - - - - -
30/07:00pm 23.8 ESE 24 27 1018.2 - - - - - - - - -
30/06:30pm 23.9 ESE 22 26 1018.0 - - - - - - - - -
30/06:15pm 24.0 ESE 20 - 1017.8 - - - - - - - - -
30/06:00pm 24.0 ESE 20 24 1018.0 - - - - - - - - -
30/05:30pm 24.0 ESE 21 24 1017.7 - - - - - - - - -
30/05:15pm 23.9 ESE 22 - 1017.2 - - - - - - - - -
30/05:00pm 23.9 ESE 22 25 1017.5 - - - - - - - - -
30/04:30pm 24.1 ESE 20 24 1017.4 - - - - - - - - -
30/04:15pm 24.1 ESE 20 - 1017.0 - - - - - - - - -
30/04:00pm 24.0 ESE 19 23 1017.3 - - - - - - - - -
30/03:30pm 23.8 SE 21 24 1017.2 - - - - - - - - -
30/03:15pm 24.0 ESE 22 - 1017.0 - - - - - - - - -
30/03:00pm 23.9 ESE 21 25 1017.3 - - - - - - - - -
30/02:30pm 23.9 SE 22 24 1017.6 - - - - - - - - -
30/02:15pm 24.0 ESE 22 - 1017.4 - - - - - - - - -
30/02:00pm 23.9 ESE 23 26 1017.8 - - - - - - - - -
30/01:30pm 23.8 ESE 23 26 1018.1 - - - - - - - - -
30/01:15pm 23.8 ESE 23 - 1018.0 - - - - - - - - -
30/01:00pm 23.9 SE 23 27 1018.5 - - - - - - - - -
30/12:30pm 24.1 SE 20 24 1018.8 - - - - - - - - -

Other Formats:

Comma delimited format used in spreadsheet applications
http://www.bom.gov.au/fwo/IDQ60701/IDQ60701.94289.axf

JavaScript Object Notation format (JSON) in row-major order
http://www.bom.gov.au/fwo/IDQ60701/IDQ60701.94289.json